Time;durP1;ratioP1;P1;durP2;ratioP2;P2;SDS_P1;SDS_P2;PMS_P1;PMS_P2;Temp;Humidity;BMP_temperature;BMP_pressure;BME280_temperature;BME280_humidity;BME280_pressure;Samples;Min_cycle;Max_cycle;Signal;HPM_P1;HPM_P2
2022/03/02 00:09:30;;;;;;;368.80;108.87;;;;;;;-0.64;59.36;101864.00;713459;1174;115915;-75
2022/03/02 00:24:32;;;;;;;227.57;77.20;;;;;;;-0.79;59.46;101843.61;713497;1174;114161;-73
2022/03/02 00:39:35;;;;;;;139.03;45.95;;;;;;;-0.96;59.64;101833.56;713396;1173;115520;-73
2022/03/02 00:55:42;;;;;;;167.05;53.90;;;;;;;-1.07;60.15;101803.69;713526;1174;115284;-74
2022/03/02 01:11:39;;;;;;;179.28;58.20;;;;;;;-1.09;60.50;101789.97;713722;1174;114673;-73
2022/03/02 01:27:13;;;;;;;;;;;;;;;-1.18;61.11;101778.06;713820;1174;115932;-74
2022/03/02 01:42:16;;;;;;;163.78;53.18;;;;;;;-1.43;60.76;101763.88;713939;1174;101924;-73
2022/03/02 01:57:19;;;;;;;258.98;80.53;;;;;;;-1.63;60.94;101754.70;713897;1174;115655;-74
2022/03/02 02:12:22;;;;;;;207.43;66.50;;;;;;;-1.74;61.00;101743.69;713745;1174;115166;-74
2022/03/02 02:27:24;;;;;;;133.80;46.70;;;;;;;-1.78;61.44;101726.59;713281;1174;115978;-73
2022/03/02 02:42:27;;;;;;;179.43;53.87;;;;;;;-1.91;61.43;101721.63;713926;1173;115349;-73
2022/03/02 02:57:29;;;;;;;187.25;58.60;;;;;;;-1.99;61.77;101715.73;713434;1173;115095;-73
2022/03/02 03:12:33;;;;;;;179.80;58.65;;;;;;;-1.99;62.25;101697.73;713726;1173;114778;-74
2022/03/02 03:27:37;;;;;;;158.80;52.48;;;;;;;-2.07;62.29;101689.23;713718;1174;115609;-73
2022/03/02 03:42:39;;;;;;;165.90;52.28;;;;;;;-2.25;62.07;101693.75;713807;1173;116005;-74
2022/03/02 03:57:42;;;;;;;134.90;46.28;;;;;;;-2.21;62.60;101674.00;713848;1174;116067;-73
2022/03/02 04:12:46;;;;;;;139.28;47.80;;;;;;;-2.54;62.24;101658.12;714167;1174;114695;-75
2022/03/02 04:27:48;;;;;;;207.17;63.60;;;;;;;-2.59;62.56;101645.30;713370;1174;115066;-76
2022/03/02 04:42:50;;;;;;;194.03;60.40;;;;;;;-2.64;62.43;101644.53;714347;1174;115593;-73
2022/03/02 04:57:58;;;;;;;184.67;58.30;;;;;;;-2.74;62.80;101633.49;713762;1174;116090;-72
2022/03/02 05:13:04;;;;;;;145.90;49.43;;;;;;;-2.85;62.89;101633.62;713613;1174;115942;-71
2022/03/02 05:28:06;;;;;;;206.65;65.43;;;;;;;-2.81;63.05;101633.58;714176;1174;115689;-72
2022/03/02 05:43:08;;;;;;;244.47;79.17;;;;;;;-2.84;63.63;101626.75;713820;1174;115581;-72
2022/03/02 05:58:10;;;;;;;696.93;190.77;;;;;;;-2.70;63.68;101617.17;713554;1174;116453;-76
2022/03/02 06:13:14;;;;;;;425.48;119.28;;;;;;;-2.51;63.72;101604.09;714560;1174;115480;-75
2022/03/02 06:28:16;;;;;;;389.33;123.60;;;;;;;-2.26;64.08;101603.79;713168;1174;116244;-76
2022/03/02 06:43:22;;;;;;;398.17;126.97;;;;;;;-1.57;64.69;101587.32;713546;1174;116374;-76
2022/03/02 06:58:27;;;;;;;531.13;200.38;;;;;;;-0.21;65.24;101573.51;713061;1174;116212;-75
2022/03/02 07:13:32;;;;;;;470.73;188.13;;;;;;;0.97;64.54;101576.64;713226;1174;115975;-75
2022/03/02 07:28:38;;;;;;;562.13;234.48;;;;;;;2.27;64.37;101563.27;715757;1174;116095;-75
2022/03/02 07:43:41;;;;;;;435.10;176.40;;;;;;;3.79;63.89;101556.09;713832;1174;115286;-78
2022/03/02 07:58:44;;;;;;;378.88;157.50;;;;;;;5.16;62.40;101539.08;715953;1174;115299;-78
2022/03/02 08:13:46;;;;;;;237.20;101.63;;;;;;;5.98;60.74;101534.45;715320;1174;116060;-78
2022/03/02 08:28:54;;;;;;;139.78;58.78;;;;;;;6.96;58.77;101525.98;714591;1173;115260;-81
2022/03/02 08:43:57;;;;;;;209.70;70.10;;;;;;;8.10;55.90;101505.80;714561;1173;115218;-81
2022/03/02 08:59:01;;;;;;;93.70;38.67;;;;;;;8.51;54.24;101490.38;715613;1174;115221;-81
2022/03/02 09:14:04;;;;;;;34.38;17.80;;;;;;;9.62;51.19;101480.84;717573;1174;114458;-81
2022/03/02 09:29:07;;;;;;;29.48;15.70;;;;;;;10.46;50.13;101479.64;716522;1174;115227;-78
2022/03/02 09:44:13;;;;;;;32.48;16.03;;;;;;;11.21;49.00;101475.31;713286;1173;114409;-78
2022/03/02 09:59:17;;;;;;;25.95;13.53;;;;;;;11.93;47.77;101479.70;713132;1174;115131;-73
2022/03/02 10:14:20;;;;;;;21.97;10.47;;;;;;;12.52;46.53;101461.30;715229;1174;115322;-74
2022/03/02 10:29:34;;;;;;;32.43;14.17;;;;;;;12.71;45.22;101445.75;713008;1174;114306;-79
2022/03/02 10:44:47;;;;;;;48.30;22.00;;;;;;;13.29;44.58;101427.06;713451;1174;116012;-77
2022/03/02 10:59:54;;;;;;;45.65;20.58;;;;;;;13.23;43.80;101411.74;713158;1174;115198;-77
2022/03/02 11:14:58;;;;;;;29.90;14.95;;;;;;;13.21;42.79;101391.75;713621;1173;114686;-77
2022/03/02 11:30:12;;;;;;;28.93;14.80;;;;;;;12.97;42.62;101366.44;713912;1174;115177;-77
2022/03/02 11:45:15;;;;;;;30.05;15.58;;;;;;;12.86;42.21;101337.53;713027;1174;115392;-77
2022/03/02 12:00:29;;;;;;;41.73;20.83;;;;;;;12.90;42.24;101320.52;713382;1174;115893;-76
2022/03/02 12:15:47;;;;;;;28.30;16.73;;;;;;;12.90;42.47;101304.71;713005;1173;115580;-76
2022/03/02 12:30:50;;;;;;;44.00;23.38;;;;;;;12.38;41.08;101292.17;713035;1174;114688;-78
2022/03/02 12:45:55;;;;;;;62.83;27.48;;;;;;;13.08;41.72;101274.22;713042;1173;116068;-78
2022/03/02 13:00:58;;;;;;;87.55;41.68;;;;;;;13.32;40.23;101273.95;713083;1174;115312;-75
2022/03/02 13:16:25;;;;;;;22.67;12.77;;;;;;;14.63;40.25;101250.42;713600;1173;115297;-76
2022/03/02 13:31:28;;;;;;;33.20;16.98;;;;;;;14.48;38.52;101231.52;713724;1174;114414;-74
2022/03/02 13:46:30;;;;;;;32.67;15.60;;;;;;;21.01;37.85;101209.50;713442;1174;116386;-73
2022/03/02 14:01:33;;;;;;;34.10;17.00;;;;;;;26.97;34.31;101181.78;713811;1174;115194;-75
2022/03/02 14:16:38;;;;;;;47.98;24.68;;;;;;;28.97;32.70;101163.00;713565;1173;116310;-77
2022/03/02 14:31:51;;;;;;;67.43;37.63;;;;;;;28.04;31.39;101148.17;713962;1174;115449;-73
2022/03/02 14:46:54;;;;;;;158.00;79.67;;;;;;;28.78;31.91;101119.95;713503;1173;114945;-74
2022/03/02 15:02:06;;;;;;;69.15;36.23;;;;;;;26.81;30.82;101110.53;713560;1167;114930;-72
2022/03/02 15:17:13;;;;;;;74.10;39.65;;;;;;;18.97;32.39;101076.46;713414;1174;114776;-75
2022/03/02 15:32:23;;;;;;;114.40;58.20;;;;;;;15.18;34.93;101067.52;713429;1174;115161;-74
2022/03/02 15:47:27;;;;;;;166.08;88.33;;;;;;;16.85;36.42;101050.30;713546;1173;114773;-74
2022/03/02 16:02:34;;;;;;;135.13;68.23;;;;;;;17.76;35.83;101041.68;713859;1174;114996;-75
2022/03/02 16:17:41;;;;;;;81.38;37.23;;;;;;;13.29;37.34;101018.64;713552;1174;115248;-74
2022/03/02 16:32:45;;;;;;;99.73;40.05;;;;;;;10.42;39.40;101029.62;713417;1174;115925;-75
2022/03/02 16:47:50;;;;;;;594.28;190.88;;;;;;;8.59;41.84;101022.57;713364;1173;115078;-74
2022/03/02 17:02:53;;;;;;;470.23;159.67;;;;;;;7.82;43.81;101018.84;713330;1174;116049;-73
2022/03/02 17:17:57;;;;;;;396.53;145.98;;;;;;;7.14;44.09;100986.59;713532;1174;115049;-73
2022/03/02 17:33:00;;;;;;;282.33;102.78;;;;;;;6.02;45.12;101007.19;713516;1173;115330;-77
2022/03/02 17:48:03;;;;;;;310.35;110.20;;;;;;;5.41;47.41;101001.87;713721;1174;114785;-77
2022/03/02 18:03:06;;;;;;;262.80;99.45;;;;;;;4.97;47.92;100995.52;713545;1167;115590;-74
2022/03/02 18:18:09;;;;;;;220.43;80.23;;;;;;;4.41;47.97;100989.78;713257;1174;115097;-77
2022/03/02 18:33:15;;;;;;;200.65;77.73;;;;;;;4.08;49.71;101000.08;714485;1174;114734;-77
2022/03/02 18:48:17;;;;;;;228.45;85.63;;;;;;;3.75;49.73;100995.63;714114;1174;115053;-77
2022/03/02 19:03:20;;;;;;;265.80;92.70;;;;;;;3.52;51.46;100989.78;713969;1174;115434;-77
2022/03/02 19:18:25;;;;;;;163.10;66.70;;;;;;;3.21;51.70;100975.66;713522;1174;115640;-77
2022/03/02 19:33:28;;;;;;;421.78;115.78;;;;;;;2.90;52.66;100971.03;713637;1177;114689;-72
2022/03/02 19:48:34;;;;;;;273.05;86.90;;;;;;;2.60;52.96;100980.10;714020;1174;115876;-75
2022/03/02 20:03:36;;;;;;;229.00;77.85;;;;;;;2.35;53.39;100977.73;713794;1174;114221;-75
2022/03/02 20:18:39;;;;;;;189.63;61.28;;;;;;;2.05;54.16;100974.69;714045;1174;114496;-72
2022/03/02 20:33:42;;;;;;;336.58;117.95;;;;;;;1.86;54.77;100972.00;713340;1174;115722;-73
2022/03/02 20:48:44;;;;;;;221.93;75.60;;;;;;;1.88;55.01;100962.44;713281;1174;115912;-73
2022/03/02 21:03:47;;;;;;;108.05;39.90;;;;;;;1.70;54.95;100938.97;713887;1174;115829;-73
2022/03/02 21:18:50;;;;;;;87.57;36.80;;;;;;;1.49;56.12;100943.27;713681;1174;115312;-74
2022/03/02 21:33:53;;;;;;;87.68;37.38;;;;;;;1.23;56.55;100902.92;713717;1174;115788;-72
2022/03/02 21:48:55;;;;;;;148.77;49.37;;;;;;;1.09;57.17;100909.47;713557;1174;116092;-73
2022/03/02 22:03:58;;;;;;;149.85;53.33;;;;;;;1.05;58.12;100887.23;713644;1177;115738;-73
2022/03/02 22:19:00;;;;;;;154.85;56.30;;;;;;;1.05;58.08;100887.23;713111;1174;115825;-73
2022/03/02 22:34:02;;;;;;;197.20;63.90;;;;;;;0.78;58.45;100876.20;713100;1174;115880;-72
2022/03/02 22:49:04;;;;;;;158.60;57.80;;;;;;;0.60;59.44;100876.00;712889;1177;114725;-72
2022/03/02 23:04:07;;;;;;;168.75;55.95;;;;;;;0.68;59.75;100846.48;713103;1177;115689;-73
2022/03/02 23:19:09;;;;;;;287.88;88.50;;;;;;;0.57;59.51;100845.14;712856;1175;115704;-72
2022/03/02 23:34:11;;;;;;;140.20;50.90;;;;;;;0.49;60.24;100834.27;713075;1177;115614;-73
2022/03/02 23:49:14;;;;;;;195.40;67.23;;;;;;;0.35;59.58;100839.92;712955;1177;115737;-73
